Time;durP1;ratioP1;P1;durP2;ratioP2;P2;SDS_P1;SDS_P2;PMS_P1;PMS_P2;Temp;Humidity;BMP_temperature;BMP_pressure;BME280_temperature;BME280_humidity;BME280_pressure;Samples;Min_cycle;Max_cycle;Signal;HPM_P1;HPM_P2
2023/07/26 02:45:13;;;;;;;;;;;;;;;14.87;78.57;99507.06;1086192;54;19942;-80
2023/07/26 02:49:30;;;;;;;;;;;;;;;14.65;79.38;99501.53;1087829;54;19939;-85
2023/07/26 02:53:36;;;;;;;;;;;;;;;14.58;79.71;99506.00;1087547;54;20974;-86
2023/07/26 02:54:45;;;;;;;;;;;;;;;14.56;80.10;99506.19;1088038;47;19947;-85
2023/07/26 02:59:44;;;;;;;;;;;;;;;14.58;79.95;99522.13;1087458;54;19930;-85
2023/07/26 03:00:48;;;;;;;;;;;;;;;14.54;80.12;99513.59;1087990;47;19947;-84
2023/07/26 03:01:53;;;;;;;;;;;;;;;14.55;80.42;99519.84;1087819;54;19999;-85
2023/07/26 03:03:01;;;;;;;;;;;;;;;14.54;80.23;99520.84;1087456;54;19931;-86
2023/07/26 03:04:05;;;;;;;;;;;;;;;14.50;80.79;99526.59;1088097;47;19927;-86
2023/07/26 03:10:07;;;;;;;;;;;;;;;14.40;81.03;99531.38;1087833;39;22001;-85
2023/07/26 03:11:08;;;;;;;;;;;;;;;14.45;80.95;99523.59;1087828;47;19942;-85
2023/07/26 03:12:12;;;;;;;;;;;;;;;14.45;80.86;99534.34;1087727;47;19939;-84
2023/07/26 03:18:32;;;;;;;;;;;;;;;14.42;81.12;99536.56;1087878;47;19934;-84
2023/07/26 03:19:33;;;;;;;;;;;;;;;14.38;81.13;99543.34;1088030;54;19995;-86
2023/07/26 03:20:53;;;;;;;;;;;;;;;14.47;80.90;99539.56;1088135;54;19943;-85
2023/07/26 03:35:56;;;;;;;;;;;;;;;14.43;80.19;99544.47;1088122;39;21289;-86
2023/07/26 03:43:10;;;;;;;;;;;;;;;14.59;80.20;99551.56;1088171;39;20526;-84
2023/07/26 03:55:54;;;;;;;;;;;;;;;14.56;79.55;99548.38;1088971;39;20246;-84
2023/07/26 03:56:56;;;;;;;;;;;;;;;14.51;79.90;99544.41;1088384;54;19930;-85
2023/07/26 03:59:36;;;;;;;;;;;;;;;14.43;80.48;99549.84;1088416;54;19927;-85
2023/07/26 04:02:11;;;;;;;;;;;;;;;14.47;80.32;99553.00;1113028;39;20782;-85
2023/07/26 04:11:25;;;;;;;;;;;;;;;14.44;80.76;99564.97;1087670;54;19955;-86
2023/07/26 04:12:37;;;;;;;;;;;;;;;14.42;80.86;99576.91;1088384;47;20020;-85
2023/07/26 04:13:41;;;;;;;;;;;;;;;14.42;80.94;99572.38;1088399;47;19935;-85
2023/07/26 04:22:46;;;;;;;;;;;;;;;14.34;81.14;99564.38;1088694;54;19915;-85
2023/07/26 04:24:05;;;;;;;;;;;;;;;14.41;81.07;99570.69;1088338;47;19934;-85
2023/07/26 04:25:19;;;;;;;;;;;;;;;14.40;80.81;99569.03;1088383;46;19938;-84
2023/07/26 04:26:25;;;;;;;;;;;;;;;14.39;81.19;99567.34;1088335;47;19955;-86
2023/07/26 04:27:36;;;;;;;;;;;;;;;14.48;80.75;99573.50;1088233;46;19938;-86
2023/07/26 04:32:27;;;;;;;;;;;;;;;14.54;80.50;99567.38;1079960;54;19942;-86
2023/07/26 04:33:40;;;;;;;;;;;;;;;14.59;80.62;99572.22;1088454;47;19930;-85
2023/07/26 04:38:45;;;;;;;;;;;;;;;14.62;80.12;99588.00;1088685;54;19939;-86
2023/07/26 04:39:50;;;;;;;;;;;;;;;14.64;80.27;99585.97;1085679;46;19930;-85
2023/07/26 04:45:04;;;;;;;;;;;;;;;14.72;80.06;99593.16;1087900;54;19926;-84
2023/07/26 04:46:16;;;;;;;;;;;;;;;14.75;79.67;99595.47;1081585;47;19934;-85
2023/07/26 04:48:56;;;;;;;;;;;;;;;14.65;80.21;99601.91;1087548;54;19927;-85
2023/07/26 04:52:41;;;;;;;;;;;;;;;14.57;80.16;99602.00;1088515;47;19935;-84
2023/07/26 04:53:45;;;;;;;;;;;;;;;14.45;80.54;99598.88;1088541;54;20548;-85
2023/07/26 05:00:05;;;;;;;;;;;;;;;14.78;79.92;99606.72;1087668;54;19927;-86
2023/07/26 05:02:34;;;;;;;;;;;;;;;14.79;79.74;99607.53;1088429;54;19934;-86
2023/07/26 05:03:36;;;;;;;;;;;;;;;14.77;79.78;99609.59;1088455;54;19967;-86
2023/07/26 05:12:23;;;;;;;;;;;;;;;14.69;79.85;99602.41;1086507;54;19927;-86
2023/07/26 05:16:43;;;;;;;;;;;;;;;14.73;79.92;99611.81;1088792;54;19915;-86
2023/07/26 05:18:05;;;;;;;;;;;;;;;14.79;79.96;99603.00;1088500;47;19934;-84
2023/07/26 05:23:09;;;;;;;;;;;;;;;14.92;78.70;99615.81;1076777;54;19970;31
2023/07/26 05:24:16;;;;;;;;;;;;;;;14.91;78.52;99607.94;1086720;54;19927;-86
2023/07/26 05:28:58;;;;;;;;;;;;;;;14.97;78.38;99617.97;1088479;47;19922;-86
2023/07/26 05:30:03;;;;;;;;;;;;;;;15.01;78.40;99618.44;1088458;47;19922;-85
2023/07/26 05:33:17;;;;;;;;;;;;;;;14.97;78.55;99612.56;1088532;54;19918;-86
2023/07/26 05:34:37;;;;;;;;;;;;;;;15.01;78.93;99619.28;1088452;46;19935;-85
2023/07/26 05:37:40;;;;;;;;;;;;;;;14.89;78.75;99616.19;1088371;54;19915;-85
2023/07/26 05:43:08;;;;;;;;;;;;;;;15.05;78.23;99625.94;1088386;39;21006;-85
2023/07/26 05:46:40;;;;;;;;;;;;;;;15.19;77.12;99615.38;1088168;54;19938;-82
2023/07/26 06:06:14;;;;;;;;;;;;;;;15.11;76.02;99641.34;1088247;54;19919;-85
2023/07/26 06:30:47;;;;;;;;;;;;;;;15.47;73.65;99647.03;1082457;54;19947;-86
2023/07/26 06:52:34;;;;;;;;;;;;;;;15.64;72.32;99650.34;1088190;54;19927;-86
2023/07/26 06:55:04;;;;;;;;;;;;;;;15.57;72.42;99656.50;1087738;54;19930;-86
2023/07/26 07:40:56;;;;;;;;;;;;;;;15.12;77.72;99690.66;1088298;54;19934;-84
2023/07/26 07:44:55;;;;;;;;;;;;;;;14.95;79.70;99692.66;1076504;54;19935;-86
2023/07/26 07:47:31;;;;;;;;;;;;;;;14.84;80.29;99698.47;1088396;54;19927;-85
2023/07/26 07:48:42;;;;;;;;;;;;;;;14.96;80.12;99694.34;1088562;54;19954;-85
2023/07/26 07:49:46;;;;;;;;;;;;;;;15.04;80.02;99691.56;1088153;47;19995;-83
2023/07/26 07:50:52;;;;;;;;;;;;;;;14.94;80.64;99689.16;1088128;46;19939;-84
2023/07/26 07:51:56;;;;;;;;;;;;;;;14.98;80.53;99689.63;1088218;54;19951;-84
2023/07/26 07:52:57;;;;;;;;;;;;;;;15.07;80.29;99696.59;1088111;54;20568;-86
2023/07/26 07:54:01;;;;;;;;;;;;;;;14.99;80.45;99702.06;1088124;54;19994;-83
2023/07/26 07:55:03;;;;;;;;;;;;;;;15.02;80.50;99695.47;1087940;47;19946;-83
2023/07/26 07:56:04;;;;;;;;;;;;;;;15.09;80.11;99697.25;1088081;47;20709;-86
2023/07/26 07:57:30;;;;;;;;;;;;;;;15.06;80.54;99694.91;1087789;47;20608;-83
2023/07/26 07:58:37;;;;;;;;;;;;;;;14.88;81.29;99706.00;1087572;47;19927;-82
2023/07/26 07:59:41;;;;;;;;;;;;;;;14.93;81.01;99705.44;1087969;54;19942;-85
2023/07/26 08:00:43;;;;;;;;;;;;;;;14.91;81.19;99712.91;1087952;47;20738;-84
2023/07/26 08:01:49;;;;;;;;;;;;;;;14.93;80.94;99708.16;1088213;39;20751;-84
2023/07/26 08:03:03;;;;;;;;;;;;;;;14.96;81.00;99707.78;1087935;54;20544;-83
2023/07/26 08:04:09;;;;;;;;;;;;;;;14.95;80.87;99709.66;1087731;47;19938;-85
2023/07/26 08:05:10;;;;;;;;;;;;;;;14.99;81.31;99712.81;1098552;31;20675;-84
2023/07/26 08:06:15;;;;;;;;;;;;;;;15.09;81.06;99707.16;1087859;54;19973;-83
2023/07/26 08:07:18;;;;;;;;;;;;;;;15.04;80.53;99706.91;1087798;54;20778;-83
2023/07/26 08:08:36;;;;;;;;;;;;;;;14.99;80.39;99715.50;1087810;47;19938;-87
2023/07/26 08:09:40;;;;;;;;;;;;;;;15.03;80.67;99714.13;1087926;47;19946;-83
2023/07/26 08:10:44;;;;;;;;;;;;;;;14.92;80.34;99710.00;1087715;39;20503;-84
2023/07/26 08:11:51;;;;;;;;;;;;;;;14.94;80.47;99716.06;1088117;54;19943;-84
2023/07/26 08:12:56;;;;;;;;;;;;;;;14.96;80.41;99710.47;1087755;54;19968;-85
2023/07/26 08:13:58;;;;;;;;;;;;;;;14.99;80.51;99718.22;1087964;54;20656;-85
2023/07/26 08:15:16;;;;;;;;;;;;;;;15.02;81.21;99711.63;1087966;47;19939;-86
2023/07/26 08:16:17;;;;;;;;;;;;;;;15.15;80.74;99711.00;1087978;46;20066;-84
2023/07/26 08:17:28;;;;;;;;;;;;;;;15.12;80.60;99718.41;1087939;46;19927;-84
2023/07/26 08:18:31;;;;;;;;;;;;;;;15.23;80.38;99721.69;1088116;47;19950;-85
2023/07/26 08:19:37;;;;;;;;;;;;;;;15.06;80.49;99718.31;1087908;47;19939;-84
2023/07/26 08:25:57;;;;;;;;;;;;;;;15.02;78.29;99717.81;1088348;39;20976;-86
2023/07/26 09:32:09;;;;;;;;;;;;;;;17.16;62.95;99678.28;1087596;54;19934;-85
2023/07/26 09:33:11;;;;;;;;;;;;;;;17.13;62.98;99681.38;1087787;46;19923;-86
2023/07/26 09:49:53;;;;;;;;;;;;;;;17.22;63.41;99676.66;1070093;54;19939;-81
2023/07/26 10:27:17;;;;;;;;;;;;;;;15.99;72.40;99699.16;1088456;54;19930;-85
2023/07/26 10:28:21;;;;;;;;;;;;;;;16.04;72.31;99694.88;1088367;54;20657;-86
2023/07/26 12:38:02;;;;;;;;;;;;;;;16.41;64.96;99677.81;1087694;54;19925;-83
2023/07/26 12:39:09;;;;;;;;;;;;;;;16.33;64.89;99682.31;1088303;47;19970;-87
2023/07/26 12:40:19;;;;;;;;;;;;;;;16.43;65.87;99675.78;1088518;47;19923;-85
2023/07/26 12:52:08;;;;;;;;;;;;;;;15.65;69.23;99657.41;1087684;54;19943;-82
2023/07/26 12:53:10;;;;;;;;;;;;;;;15.76;69.78;99659.63;1087844;54;19942;-82
2023/07/26 12:54:13;;;;;;;;;;;;;;;15.84;69.45;99664.94;1087587;47;19930;-81
2023/07/26 12:55:14;;;;;;;;;;;;;;;15.92;69.04;99664.00;1087277;47;19951;-81
2023/07/26 12:56:17;;;;;;;;;;;;;;;15.95;69.34;99674.44;1087178;47;20552;-81
2023/07/26 12:57:18;;;;;;;;;;;;;;;15.99;69.46;99658.72;1087395;47;19939;-81
2023/07/26 12:58:26;;;;;;;;;;;;;;;16.13;69.89;99670.47;1087506;47;19962;-81
2023/07/26 12:59:28;;;;;;;;;;;;;;;16.27;69.40;99658.78;1087340;47;19978;-82
2023/07/26 13:00:30;;;;;;;;;;;;;;;16.35;68.69;99666.75;1087194;54;19942;-82
2023/07/26 13:01:33;;;;;;;;;;;;;;;16.48;68.85;99652.56;1087104;46;19938;-80
2023/07/26 13:02:34;;;;;;;;;;;;;;;16.56;68.78;99656.19;1085834;54;19958;-81
2023/07/26 13:03:38;;;;;;;;;;;;;;;16.68;69.70;99671.66;1086977;54;20569;-81
2023/07/26 13:04:39;;;;;;;;;;;;;;;16.79;69.27;99664.06;1086737;54;19977;-81
2023/07/26 13:05:42;;;;;;;;;;;;;;;16.88;69.53;99654.78;1086407;54;19950;-81
2023/07/26 13:06:44;;;;;;;;;;;;;;;16.98;68.66;99658.03;1086411;54;19951;-81
2023/07/26 13:07:50;;;;;;;;;;;;;;;17.09;68.27;99662.03;1086572;47;19973;-80
2023/07/26 13:08:57;;;;;;;;;;;;;;;17.19;67.94;99658.16;1087537;54;19955;-82
2023/07/26 13:10:24;;;;;;;;;;;;;;;17.18;67.88;99665.44;1087362;54;19938;-81
2023/07/26 13:11:27;;;;;;;;;;;;;;;17.27;66.95;99658.00;1087391;47;19945;-82
2023/07/26 13:12:28;;;;;;;;;;;;;;;17.29;66.65;99658.63;1094728;39;20551;-82
2023/07/26 13:13:36;;;;;;;;;;;;;;;17.36;67.84;99653.28;1087271;47;19961;-82
2023/07/26 13:14:58;;;;;;;;;;;;;;;17.36;67.39;99669.50;1087597;54;19934;-82
2023/07/26 13:16:00;;;;;;;;;;;;;;;17.43;67.55;99667.66;1087469;54;19950;-81
2023/07/26 13:17:33;;;;;;;;;;;;;;;17.46;67.25;99667.25;1087467;54;19939;-82
2023/07/26 13:18:36;;;;;;;;;;;;;;;17.53;67.34;99662.72;1087614;47;19969;-82
2023/07/26 13:19:48;;;;;;;;;;;;;;;17.54;66.72;99664.41;1087677;54;20011;-83
2023/07/26 13:21:20;;;;;;;;;;;;;;;17.54;66.47;99667.09;1095170;39;20599;-83
2023/07/26 13:22:23;;;;;;;;;;;;;;;17.58;66.53;99657.53;1087608;47;19930;-82
2023/07/26 13:23:27;;;;;;;;;;;;;;;17.68;66.61;99661.75;1087479;54;19946;-81
2023/07/26 13:24:30;;;;;;;;;;;;;;;17.72;66.08;99650.31;1087451;54;19938;-82
2023/07/26 13:25:32;;;;;;;;;;;;;;;17.83;66.92;99654.34;1087482;54;19943;-82
2023/07/26 13:27:30;;;;;;;;;;;;;;;17.97;66.51;99654.41;1087483;47;19939;-82
2023/07/26 13:28:42;;;;;;;;;;;;;;;18.02;66.21;99649.25;1087519;54;19943;-81
2023/07/26 13:30:02;;;;;;;;;;;;;;;18.12;65.94;99648.84;1087304;54;19946;-83
2023/07/26 13:31:25;;;;;;;;;;;;;;;18.20;64.98;99648.63;1087623;54;19973;-84
2023/07/26 13:33:59;;;;;;;;;;;;;;;18.31;64.28;99636.41;1087423;47;19954;-82
2023/07/26 13:35:00;;;;;;;;;;;;;;;18.38;63.87;99637.25;1087535;47;19942;-83
2023/07/26 13:36:03;;;;;;;;;;;;;;;18.47;65.15;99627.88;1087563;54;19960;-82
2023/07/26 13:37:04;;;;;;;;;;;;;;;18.54;63.05;99630.59;1087406;54;19923;-82
2023/07/26 13:38:05;;;;;;;;;;;;;;;18.53;62.12;99631.63;1087336;54;19951;-82
2023/07/26 13:39:24;;;;;;;;;;;;;;;;;;;;;
2023/07/26 13:40:55;;;;;;;;;;;;;;;18.61;61.27;99627.91;1087740;54;19926;-82
2023/07/26 13:42:21;;;;;;;;;;;;;;;18.66;61.50;99625.41;1087647;54;19943;-82
2023/07/26 13:43:25;;;;;;;;;;;;;;;18.68;63.03;99632.25;1087594;54;19935;-83
2023/07/26 13:44:38;;;;;;;;;;;;;;;18.74;62.67;99633.31;1087567;47;19958;-82
2023/07/26 19:51:07;;;;;;;;;;;;;;;17.03;73.38;99797.00;1088648;54;19926;-84
2023/07/26 19:52:08;;;;;;;;;;;;;;;17.02;73.39;99796.16;1088057;47;19923;-84
2023/07/26 19:53:12;;;;;;;;;;;;;;;17.03;73.09;99794.28;1088240;46;19942;-83
2023/07/26 19:54:41;;;;;;;;;;;;;;;16.99;73.41;99794.69;1088041;47;19963;-83
2023/07/26 19:57:20;;;;;;;;;;;;;;;16.99;73.29;99789.28;1087960;54;19942;-84
2023/07/26 19:58:21;;;;;;;;;;;;;;;16.99;72.96;99789.28;1088004;47;19945;-83
2023/07/26 19:59:32;;;;;;;;;;;;;;;16.99;73.36;99794.69;1087996;47;19947;-83
2023/07/26 20:00:33;;;;;;;;;;;;;;;17.00;72.96;99792.81;1087910;47;19923;-84
2023/07/26 20:01:41;;;;;;;;;;;;;;;17.02;73.31;99787.22;1087934;46;19934;-84
2023/07/26 20:02:41;;;;;;;;;;;;;;;16.99;73.50;99794.69;1087870;47;19935;-83
2023/07/26 20:03:55;;;;;;;;;;;;;;;16.99;73.77;99794.69;1087920;47;19946;-83
2023/07/26 20:04:56;;;;;;;;;;;;;;;17.00;73.42;99785.53;1087675;47;19939;-83
2023/07/26 20:06:04;;;;;;;;;;;;;;;17.02;72.83;99788.06;1090748;39;20865;-84
2023/07/26 20:07:08;;;;;;;;;;;;;;;17.00;73.23;99785.53;1087766;47;19939;-84
2023/07/26 20:08:12;;;;;;;;;;;;;;;17.01;72.83;99778.28;1087646;47;19942;-84
2023/07/26 20:09:13;;;;;;;;;;;;;;;16.97;73.04;99777.84;1087700;46;19939;-83
2023/07/26 20:10:35;;;;;;;;;;;;;;;16.97;72.85;99783.25;1087703;47;19961;-83
2023/07/26 20:11:37;;;;;;;;;;;;;;;16.97;72.97;99783.25;1087727;47;19979;-83
2023/07/26 20:12:50;;;;;;;;;;;;;;;16.97;72.79;99780.53;1087741;47;19965;-83
2023/07/26 20:14:08;;;;;;;;;;;;;;;16.99;73.50;99780.34;1087789;47;19938;-84
2023/07/26 20:15:37;;;;;;;;;;;;;;;16.96;73.63;99784.28;1087649;54;19943;-82
2023/07/26 23:12:19;;;;;;;;;;;;;;;16.01;64.50;99716.78;1087520;47;19923;-84
2023/07/26 23:15:24;;;;;;;;;;;;;;;15.98;64.68;99717.16;1087674;47;19945;-84
2023/07/26 23:16:32;;;;;;;;;;;;;;;15.94;64.80;99721.28;1087520;54;19949;-83
2023/07/26 23:17:51;;;;;;;;;;;;;;;15.98;64.35;99719.84;1087390;47;19943;-84
2023/07/26 23:18:56;;;;;;;;;;;;;;;16.00;64.19;99728.59;1087319;54;19942;-83
2023/07/26 23:20:15;;;;;;;;;;;;;;;15.99;64.32;99718.00;1090601;39;20217;-82
2023/07/26 23:21:16;;;;;;;;;;;;;;;16.02;64.14;99718.47;1087147;54;19943;-83
2023/07/26 23:22:19;;;;;;;;;;;;;;;16.02;64.16;99723.88;1087148;47;19942;-83
2023/07/26 23:23:23;;;;;;;;;;;;;;;16.01;64.29;99713.28;1087177;47;19950;-83
2023/07/26 23:24:24;;;;;;;;;;;;;;;16.03;64.58;99719.28;1087158;47;19954;-81
2023/07/26 23:25:30;;;;;;;;;;;;;;;16.04;64.55;99715.56;1087507;47;19950;-83
2023/07/26 23:26:43;;;;;;;;;;;;;;;16.04;64.39;99712.88;1087319;47;19943;-83
2023/07/26 23:27:57;;;;;;;;;;;;;;;15.95;64.38;99714.00;1087489;54;20760;-83
2023/07/26 23:29:25;;;;;;;;;;;;;;;15.99;64.48;99718.84;1087583;47;19927;-83
2023/07/26 23:30:35;;;;;;;;;;;;;;;15.95;64.37;99709.47;1087540;54;19943;-83
2023/07/26 23:32:01;;;;;;;;;;;;;;;;;;;;;
2023/07/26 23:36:38;;;;;;;;;;;;;;;15.93;64.01;99703.44;1087420;54;19935;-83
2023/07/26 23:37:40;;;;;;;;;;;;;;;15.90;64.25;99709.19;1087487;47;20021;-83
2023/07/26 23:38:56;;;;;;;;;;;;;;;15.92;64.41;99706.31;1087538;54;19946;-84
2023/07/26 23:40:19;;;;;;;;;;;;;;;15.90;64.06;99712.72;1087468;54;20031;-83
2023/07/26 23:41:28;;;;;;;;;;;;;;;15.89;63.91;99702.13;1087391;47;19943;-84
2023/07/26 23:42:52;;;;;;;;;;;;;;;15.89;64.35;99708.34;1087517;47;19942;-83
2023/07/26 23:44:24;;;;;;;;;;;;;;;15.88;64.09;99713.91;1087430;47;20019;-84
2023/07/26 23:45:27;;;;;;;;;;;;;;;15.88;63.92;99714.78;1087519;47;19943;-84
2023/07/26 23:46:39;;;;;;;;;;;;;;;15.87;64.30;99709.59;1087553;47;19942;-82
2023/07/26 23:47:41;;;;;;;;;;;;;;;15.84;64.34;99709.94;1087592;54;19943;-83
2023/07/26 23:51:34;;;;;;;;;;;;;;;15.83;64.21;99713.63;1087482;54;19946;-82
2023/07/26 23:52:47;;;;;;;;;;;;;;;15.83;64.30;99703.66;1087654;47;19994;-83
